createdAt,value
2023-07-19T00:01:03.217Z,100560.94
2023-07-19T00:03:29.530Z,100545.56
2023-07-19T00:05:55.810Z,100604.09
2023-07-19T00:08:22.067Z,100775.94
2023-07-19T00:10:48.306Z,100882.56
2023-07-19T00:13:14.575Z,100936.28
2023-07-19T00:15:40.868Z,100897.72
2023-07-19T00:18:07.144Z,100802.50
2023-07-19T00:20:33.421Z,100710.88
2023-07-19T00:22:59.709Z,100617.97
2023-07-19T00:25:26.035Z,100541.50
2023-07-19T00:27:52.322Z,100505.19
2023-07-19T00:30:18.611Z,100486.13
2023-07-19T00:32:44.907Z,100468.59
2023-07-19T00:35:11.260Z,100481.81
2023-07-19T00:37:37.539Z,100533.47
2023-07-19T00:40:04.061Z,100515.19
2023-07-19T00:42:30.395Z,100492.38
2023-07-19T00:44:56.785Z,100490.13
2023-07-19T00:47:23.984Z,100472.72
2023-07-19T00:49:51.255Z,100501.78
2023-07-19T00:52:17.521Z,100485.34
2023-07-19T00:54:43.772Z,100471.06
2023-07-19T00:57:10.045Z,100438.78
2023-07-19T00:59:36.301Z,100434.47
2023-07-19T01:02:02.572Z,100435.81
2023-07-19T01:04:28.852Z,100525.06
2023-07-19T01:06:55.112Z,100546.38
2023-07-19T01:09:21.384Z,100516.16
2023-07-19T01:11:47.650Z,100487.13
2023-07-19T01:14:14.933Z,100585.44
2023-07-19T01:16:41.271Z,100612.63
2023-07-19T01:19:08.152Z,100608.41
2023-07-19T01:21:34.659Z,100555.78
2023-07-19T01:24:01.115Z,100517.91
2023-07-19T01:26:27.360Z,100475.66
2023-07-19T01:28:56.365Z,100461.09
2023-07-19T01:31:22.818Z,100450.25
2023-07-19T01:33:49.380Z,100448.41
2023-07-19T01:36:15.668Z,100485.38
2023-07-19T01:38:41.940Z,100528.03
2023-07-19T01:41:08.251Z,100591.06
2023-07-19T01:43:35.257Z,100583.16
2023-07-19T01:46:01.561Z,100538.88
2023-07-19T01:48:28.273Z,100521.47
2023-07-19T01:50:54.517Z,100488.41
2023-07-19T01:53:20.772Z,100455.34
2023-07-19T01:55:47.165Z,100530.28
2023-07-19T01:58:13.444Z,100609.53
2023-07-19T02:00:39.699Z,100543.03
2023-07-19T02:03:06.025Z,100493.03
2023-07-19T02:05:32.295Z,100444.28
2023-07-19T02:07:58.560Z,100421.50
2023-07-19T02:10:24.826Z,100417.59
2023-07-19T02:12:51.095Z,100406.56
2023-07-19T02:15:17.460Z,100401.06
2023-07-19T02:17:43.767Z,100418.47
2023-07-19T02:20:10.202Z,100419.25
2023-07-19T02:22:36.506Z,100430.91
2023-07-19T02:25:02.899Z,100443.63
2023-07-19T02:27:29.180Z,100440.50
2023-07-19T02:29:55.447Z,100518.41
2023-07-19T02:32:21.729Z,100687.31
2023-07-19T02:34:47.994Z,100697.78
2023-07-19T02:37:14.247Z,100632.75
2023-07-19T02:39:40.512Z,100583.00
2023-07-19T02:42:06.862Z,100541.47
2023-07-19T02:44:33.117Z,100516.81
2023-07-19T02:46:59.442Z,100509.44
2023-07-19T02:49:25.772Z,100505.19
2023-07-19T02:51:52.023Z,100497.50
2023-07-19T02:54:18.269Z,100471.59
2023-07-19T02:56:44.524Z,100458.38
2023-07-19T02:59:10.792Z,100455.75
2023-07-19T03:01:37.043Z,100450.19
2023-07-19T03:04:03.313Z,100484.28
2023-07-19T03:06:29.578Z,100720.72
2023-07-19T03:08:56.007Z,100844.47
2023-07-19T03:11:22.532Z,100891.91
2023-07-19T03:13:49.020Z,100885.31
2023-07-19T03:16:15.299Z,100814.75
2023-07-19T03:18:41.578Z,100718.78
2023-07-19T03:21:07.971Z,100632.34
2023-07-19T03:23:34.240Z,100548.56
2023-07-19T03:26:00.518Z,100511.44
2023-07-19T03:28:30.169Z,100513.03
2023-07-19T03:30:56.797Z,100479.69
2023-07-19T03:33:23.349Z,100469.31
2023-07-19T03:35:49.597Z,100446.28
2023-07-19T03:38:16.354Z,100521.41
2023-07-19T03:40:42.884Z,100484.59
2023-07-19T03:43:09.163Z,100449.09
2023-07-19T03:45:35.450Z,100417.13
2023-07-19T03:48:01.799Z,100404.44
2023-07-19T03:50:28.077Z,100413.88
2023-07-19T03:52:54.350Z,100398.56
2023-07-19T03:55:20.607Z,100456.81
2023-07-19T03:57:46.908Z,100432.19
2023-07-19T04:00:13.218Z,100406.75
2023-07-19T04:02:39.522Z,100395.41
2023-07-19T04:05:06.075Z,100390.44
2023-07-19T04:07:32.350Z,100403.16
2023-07-19T04:09:58.622Z,100407.66
2023-07-19T04:12:24.889Z,100405.78
2023-07-19T04:14:51.153Z,100395.22
2023-07-19T04:17:17.413Z,100404.44
2023-07-19T04:19:43.678Z,100407.66
2023-07-19T04:22:09.950Z,100423.47
2023-07-19T04:24:36.270Z,100419.00
2023-07-19T04:27:02.533Z,100412.94
2023-07-19T04:29:28.805Z,100434.03
2023-07-19T04:31:55.053Z,100471.09
2023-07-19T04:34:21.325Z,100467.88
2023-07-19T04:36:47.580Z,100495.91
2023-07-19T04:39:13.825Z,100683.69
2023-07-19T04:41:40.087Z,100664.91
2023-07-19T04:44:06.373Z,100606.78
2023-07-19T04:46:32.650Z,100561.59
2023-07-19T04:48:58.923Z,100525.34
2023-07-19T04:51:25.223Z,100503.34
2023-07-19T04:53:51.476Z,100560.19
2023-07-19T04:56:17.734Z,100592.25
2023-07-19T04:58:43.995Z,100551.81
2023-07-19T05:01:10.280Z,100577.13
2023-07-19T05:03:36.610Z,100616.22
2023-07-19T05:06:02.921Z,100708.00
2023-07-19T05:08:29.199Z,100685.53
2023-07-19T05:10:55.483Z,100694.25
2023-07-19T05:13:21.740Z,100815.19
2023-07-19T05:15:48.021Z,100847.25
2023-07-19T05:18:14.297Z,100842.31
2023-07-19T05:20:40.657Z,100824.13
2023-07-19T05:23:07.012Z,100808.16
2023-07-19T05:25:33.379Z,100809.81
2023-07-19T05:27:59.649Z,100810.34
2023-07-19T05:30:25.915Z,100811.00
2023-07-19T05:32:52.329Z,100804.38
2023-07-19T05:35:18.589Z,100799.72
2023-07-19T05:37:45.083Z,100800.22
2023-07-19T05:40:11.543Z,100765.63
2023-07-19T05:42:37.802Z,100751.25
2023-07-19T05:45:04.299Z,100747.38
2023-07-19T05:47:31.339Z,100745.66
2023-07-19T05:49:57.687Z,100747.59
2023-07-19T05:52:23.961Z,100743.38
2023-07-19T05:54:50.254Z,100735.25
2023-07-19T05:57:16.560Z,100728.72
2023-07-19T05:59:42.836Z,100741.00
2023-07-19T06:02:09.171Z,100711.66
2023-07-19T06:04:35.617Z,100685.75
2023-07-19T06:07:01.946Z,100665.91
2023-07-19T06:09:28.211Z,100659.38
2023-07-19T06:11:54.452Z,100675.97
2023-07-19T06:14:20.713Z,100680.44
2023-07-19T06:16:46.982Z,100658.41
2023-07-19T06:19:13.250Z,100647.34
2023-07-19T06:21:39.509Z,100644.19
2023-07-19T06:24:05.896Z,100611.94
2023-07-19T06:26:32.194Z,100537.84
2023-07-19T06:28:58.478Z,100492.34
2023-07-19T06:31:24.982Z,100510.28
2023-07-19T06:33:51.398Z,100551.09
2023-07-19T06:36:17.666Z,100601.06
2023-07-19T06:38:43.914Z,100614.69
2023-07-19T06:41:10.180Z,100613.00
2023-07-19T06:43:36.446Z,100630.81
2023-07-19T06:46:02.775Z,100620.66
2023-07-19T06:48:29.042Z,100592.91
2023-07-19T06:50:55.492Z,100627.16
2023-07-19T06:53:21.752Z,100645.13
2023-07-19T06:55:48.028Z,100640.34
2023-07-19T06:58:14.294Z,100606.88
2023-07-19T07:00:41.764Z,100578.22
2023-07-19T07:03:08.256Z,100520.03
2023-07-19T07:05:34.682Z,100491.25
2023-07-19T07:08:00.960Z,100448.47
2023-07-19T07:10:27.216Z,100488.00
2023-07-19T07:12:53.471Z,100468.16
2023-07-19T07:15:19.719Z,100525.41
2023-07-19T07:17:46.344Z,100572.38
2023-07-19T07:20:12.693Z,100626.38
2023-07-19T07:22:39.039Z,100634.50
2023-07-19T07:25:05.636Z,100635.50
2023-07-19T07:27:31.883Z,100640.16
2023-07-19T07:29:58.898Z,100657.88
2023-07-19T07:32:25.271Z,100691.28
2023-07-19T07:34:51.563Z,100706.41
2023-07-19T07:37:17.822Z,100696.81
2023-07-19T07:39:44.096Z,100687.00
2023-07-19T07:42:10.360Z,100660.75
2023-07-19T07:44:36.653Z,100671.47
2023-07-19T07:47:02.914Z,100664.53
2023-07-19T07:49:29.388Z,100672.84
2023-07-19T07:51:55.632Z,100675.91
2023-07-19T07:54:21.891Z,100660.50
2023-07-19T07:56:48.147Z,100620.28
2023-07-19T07:59:14.402Z,100571.97
2023-07-19T08:01:40.645Z,100556.72
2023-07-19T08:04:06.943Z,100553.63
2023-07-19T08:06:33.351Z,100561.94
2023-07-19T08:08:59.608Z,100532.66
2023-07-19T08:11:25.863Z,100514.41
2023-07-19T08:13:52.232Z,100486.78
2023-07-19T08:16:18.516Z,100450.84
2023-07-19T08:18:44.810Z,100412.00
2023-07-19T08:21:16.150Z,100386.88
2023-07-19T08:23:52.231Z,100363.53
2023-07-19T08:26:18.480Z,100342.88
2023-07-19T08:28:44.752Z,100369.69
2023-07-19T08:31:11.046Z,100403.25
2023-07-19T08:33:37.337Z,100439.84
2023-07-19T08:36:03.729Z,100487.56
2023-07-19T08:38:30.012Z,100550.59
2023-07-19T08:41:00.147Z,100582.28
2023-07-19T08:43:26.613Z,100588.44
2023-07-19T08:45:52.876Z,100548.72
2023-07-19T08:48:20.641Z,100521.00
2023-07-19T08:50:47.262Z,100493.72
2023-07-19T08:53:13.535Z,100434.53
2023-07-19T08:55:39.790Z,100399.31
2023-07-19T08:58:06.062Z,100373.09
2023-07-19T09:00:32.345Z,100357.47
2023-07-19T09:02:58.657Z,100344.00
2023-07-19T09:05:25.645Z,100398.31
2023-07-19T09:07:51.921Z,100403.91
2023-07-19T09:10:18.318Z,100453.38
2023-07-19T09:12:44.758Z,100487.44
2023-07-19T09:15:11.549Z,100471.53
2023-07-19T09:17:41.385Z,100445.13
2023-07-19T09:20:08.086Z,100441.13
2023-07-19T09:22:34.863Z,100510.66
2023-07-19T09:25:01.673Z,100552.38
2023-07-19T09:27:28.049Z,100520.63
2023-07-19T09:29:54.344Z,100493.41
2023-07-19T09:32:20.750Z,100530.59
2023-07-19T09:34:47.047Z,100551.75
2023-07-19T09:37:13.312Z,100573.31
2023-07-19T09:39:39.566Z,100544.38
2023-07-19T09:42:05.922Z,100487.44
2023-07-19T09:44:32.299Z,100504.06
2023-07-19T09:46:58.564Z,100514.69
2023-07-19T09:49:24.909Z,100539.47
2023-07-19T09:51:51.146Z,100621.75
2023-07-19T09:54:17.428Z,100619.44
2023-07-19T09:56:44.346Z,100650.34
2023-07-19T09:59:21.127Z,100661.50
2023-07-19T10:01:47.472Z,100626.19
2023-07-19T10:04:23.613Z,100554.94
2023-07-19T10:06:50.081Z,100502.38
2023-07-19T10:09:22.425Z,100445.78
2023-07-19T10:11:50.284Z,100436.53
2023-07-19T10:14:33.510Z,100456.16
2023-07-19T10:17:01.104Z,100463.78
2023-07-19T10:19:27.404Z,100427.13
2023-07-19T10:22:03.395Z,100410.19
2023-07-19T10:24:29.903Z,100381.13
2023-07-19T10:26:56.204Z,100460.69
2023-07-19T10:29:24.007Z,100538.50
2023-07-19T10:31:50.286Z,100552.72
2023-07-19T10:34:17.769Z,100558.19
2023-07-19T10:36:46.830Z,100590.00
2023-07-19T10:39:13.134Z,100573.22
2023-07-19T10:41:39.404Z,100573.63
2023-07-19T10:44:06.775Z,100577.53
2023-07-19T10:46:33.251Z,100584.00
2023-07-19T10:48:59.591Z,100575.94
2023-07-19T10:51:26.259Z,100587.94
2023-07-19T10:53:53.124Z,100559.09
2023-07-19T10:56:20.269Z,100514.91
2023-07-19T10:58:47.007Z,100491.56
2023-07-19T11:01:13.744Z,100475.09
2023-07-19T11:03:40.458Z,100536.94
2023-07-19T11:06:07.720Z,100561.22
2023-07-19T11:08:33.975Z,100596.72
2023-07-19T11:11:00.244Z,100563.59
2023-07-19T11:13:26.917Z,100555.84
2023-07-19T11:15:56.460Z,100585.91
2023-07-19T11:18:26.061Z,100606.59
2023-07-19T11:20:52.349Z,100584.97
2023-07-19T11:23:18.616Z,100583.22
2023-07-19T11:25:47.792Z,100612.94
2023-07-19T11:28:14.260Z,100609.97
2023-07-19T11:30:40.784Z,100609.31
2023-07-19T11:33:07.603Z,100621.59
2023-07-19T11:35:34.237Z,100622.00
2023-07-19T11:38:00.651Z,100632.66
2023-07-19T11:40:26.914Z,100599.03
2023-07-19T11:42:55.004Z,100570.56
2023-07-19T11:45:21.980Z,100590.34
2023-07-19T11:47:49.002Z,100577.88
2023-07-19T11:50:15.308Z,100522.75
2023-07-19T11:52:42.458Z,100487.59
2023-07-19T11:55:08.743Z,100516.91
2023-07-19T11:57:35.008Z,100511.72
2023-07-19T12:00:01.271Z,100526.97
2023-07-19T12:02:29.025Z,100563.59
2023-07-19T12:04:55.558Z,100582.38
2023-07-19T12:07:21.836Z,100559.09
2023-07-19T12:09:48.112Z,100519.66
2023-07-19T12:12:14.384Z,100525.03
2023-07-19T12:14:40.653Z,100525.94
2023-07-19T12:17:06.917Z,100520.59
2023-07-19T12:19:33.572Z,100515.13
2023-07-19T12:21:59.944Z,100547.38
2023-07-19T12:24:26.182Z,100470.09
2023-07-19T12:26:52.456Z,100453.47
2023-07-19T12:29:18.701Z,100514.28
2023-07-19T12:31:45.016Z,100526.25
2023-07-19T12:34:11.284Z,100535.63
2023-07-19T12:36:37.542Z,100537.03
2023-07-19T12:39:03.803Z,100501.31
2023-07-19T12:41:30.177Z,100488.91
2023-07-19T12:43:56.484Z,100462.56
2023-07-19T12:46:23.026Z,100485.06
2023-07-19T12:48:49.759Z,100541.34
2023-07-19T12:51:16.028Z,100526.25
2023-07-19T12:53:42.283Z,100465.81
2023-07-19T12:56:08.561Z,100408.63
2023-07-19T12:58:34.886Z,100363.59
2023-07-19T13:01:01.210Z,100298.16
2023-07-19T13:03:27.643Z,100299.88
2023-07-19T13:05:53.943Z,100304.63
2023-07-19T13:08:20.526Z,100325.38
2023-07-19T13:10:46.782Z,100234.38
2023-07-19T13:13:13.020Z,100163.75
2023-07-19T13:15:39.272Z,100240.53
2023-07-19T13:18:05.611Z,100378.00
2023-07-19T13:20:31.961Z,100389.94
2023-07-19T13:22:58.250Z,100475.53
2023-07-19T13:25:24.556Z,100431.25
2023-07-19T13:27:50.827Z,100328.47
2023-07-19T13:30:17.090Z,100299.69
2023-07-19T13:32:43.403Z,100277.16
2023-07-19T13:40:08.399Z,100190.53
2023-07-19T13:42:34.690Z,100249.53
2023-07-19T13:45:01.114Z,100214.38
2023-07-19T13:47:27.716Z,100200.38
2023-07-19T13:49:54.068Z,100309.16
2023-07-19T13:52:20.343Z,100194.94
2023-07-19T13:54:47.396Z,100254.34
2023-07-19T13:57:13.704Z,100272.84
2023-07-19T13:59:39.949Z,100243.16
2023-07-19T14:02:06.513Z,100100.78
2023-07-19T14:04:32.921Z,100158.75
2023-07-19T14:06:59.223Z,100159.13
2023-07-19T14:09:25.485Z,100131.41
2023-07-19T14:11:51.743Z,100105.25
2023-07-19T14:14:18.014Z,100066.16
2023-07-19T14:16:44.608Z,100055.59
2023-07-19T14:19:12.133Z,100142.88
2023-07-19T14:21:39.632Z,100078.13
2023-07-19T14:24:06.106Z,100050.84
2023-07-19T14:26:32.374Z,100041.81
2023-07-19T14:28:58.621Z,100088.47
2023-07-19T14:31:24.939Z,100074.19
2023-07-19T14:33:51.249Z,100107.16
2023-07-19T14:36:17.548Z,100178.94
2023-07-19T14:38:43.805Z,100255.97
2023-07-19T14:41:10.106Z,100284.25
2023-07-19T14:43:36.623Z,100278.53
2023-07-19T14:46:02.978Z,100281.16
2023-07-19T14:48:29.278Z,100221.34
2023-07-19T14:50:57.257Z,100184.75
2023-07-19T14:53:25.862Z,100182.41
2023-07-19T14:55:52.633Z,100249.66
2023-07-19T14:58:20.826Z,100282.50
2023-07-19T15:00:50.664Z,100189.63
2023-07-19T15:05:47.376Z,100033.44
2023-07-19T15:08:13.674Z,100090.50
2023-07-19T15:10:39.951Z,100104.84
2023-07-19T15:13:06.215Z,100155.22
2023-07-19T15:15:32.461Z,100170.00
2023-07-19T15:17:58.876Z,100093.63
2023-07-19T15:20:25.224Z,100018.34
2023-07-19T15:22:55.179Z,100137.31
2023-07-19T15:25:21.936Z,100119.94
2023-07-19T15:27:48.195Z,100148.53
2023-07-19T15:30:14.429Z,100123.50
2023-07-19T15:32:42.375Z,100019.44
2023-07-19T15:35:09.444Z,100050.56
2023-07-19T15:37:35.699Z,100111.66
2023-07-19T15:40:01.958Z,100057.84
2023-07-19T15:42:28.370Z,100229.31
2023-07-19T15:44:54.625Z,100149.94
2023-07-19T15:47:20.888Z,100137.81
2023-07-19T15:49:47.139Z,100146.53
2023-07-19T15:52:13.651Z,100270.47
2023-07-19T15:54:39.932Z,100223.34
2023-07-19T15:57:06.244Z,100199.84
2023-07-19T15:59:32.498Z,100153.78
2023-07-19T16:01:58.793Z,100129.63
2023-07-19T16:04:25.139Z,100212.22
2023-07-19T16:06:51.422Z,100223.56
2023-07-19T16:09:17.682Z,100214.22
2023-07-19T16:11:43.938Z,100211.72
2023-07-19T16:14:10.192Z,100228.25
2023-07-19T16:16:36.588Z,100247.34
2023-07-19T16:19:03.006Z,100260.88
2023-07-19T16:21:29.281Z,100201.38
2023-07-19T16:23:55.577Z,100104.94
2023-07-19T16:26:21.856Z,100088.31
2023-07-19T16:28:48.135Z,100087.69
2023-07-19T16:31:18.561Z,100151.22
2023-07-19T16:33:44.866Z,100119.38
2023-07-19T16:36:11.121Z,99972.19
2023-07-19T16:38:37.394Z,99974.34
2023-07-19T16:41:03.654Z,100042.09
2023-07-19T16:43:29.916Z,100051.88
2023-07-19T16:45:56.172Z,100119.38
2023-07-19T16:48:22.429Z,100104.41
2023-07-19T16:50:48.739Z,100102.38
2023-07-19T16:53:15.680Z,100040.47
2023-07-19T16:55:45.258Z,100039.09
2023-07-19T16:58:11.579Z,100060.81
2023-07-19T17:00:37.829Z,100068.16
2023-07-19T17:03:04.165Z,100122.22
2023-07-19T17:05:33.875Z,100179.22
2023-07-19T17:08:00.144Z,100114.59
2023-07-19T17:10:26.455Z,100068.16
2023-07-19T17:12:52.780Z,100073.75
2023-07-19T17:15:19.051Z,100068.47
2023-07-19T17:17:45.446Z,100048.00
2023-07-19T17:20:11.896Z,100004.66
2023-07-19T17:22:38.193Z,100038.06
2023-07-19T17:25:04.598Z,100054.66
2023-07-19T17:27:30.860Z,100075.16
2023-07-19T17:29:57.126Z,100019.69
2023-07-19T17:32:23.443Z,100073.34
2023-07-19T17:34:49.734Z,99965.97
2023-07-19T17:37:15.989Z,99966.47
2023-07-19T17:39:42.233Z,99910.81
2023-07-19T17:42:08.896Z,99931.16
2023-07-19T17:44:35.155Z,99945.03
2023-07-19T17:47:01.474Z,99919.38
2023-07-19T17:49:27.796Z,99904.91
2023-07-19T17:51:54.042Z,99956.34
2023-07-19T17:54:20.286Z,99997.19
2023-07-19T17:56:46.531Z,100005.75
2023-07-19T17:59:12.797Z,100007.00
2023-07-19T18:01:39.065Z,100005.72
2023-07-19T18:04:05.456Z,100004.78
2023-07-19T18:06:31.759Z,100043.97
2023-07-19T18:08:58.040Z,100129.00
2023-07-19T18:11:24.639Z,100123.88
2023-07-19T18:13:51.162Z,100178.06
2023-07-19T18:16:17.439Z,100134.13
2023-07-19T18:18:43.726Z,100169.16
2023-07-19T18:21:10.006Z,100218.06
2023-07-19T18:23:36.273Z,100234.84
2023-07-19T18:26:02.511Z,100269.28
2023-07-19T18:28:28.794Z,100296.53
2023-07-19T18:30:55.188Z,100296.16
2023-07-19T18:33:21.487Z,100293.41
2023-07-19T18:35:47.742Z,100290.28
2023-07-19T18:38:14.003Z,100283.16
2023-07-19T18:40:40.272Z,100287.28
2023-07-19T18:43:06.563Z,100312.00
2023-07-19T18:45:32.867Z,100276.22
2023-07-19T18:47:59.225Z,100248.19
2023-07-19T18:50:25.607Z,100208.28
2023-07-19T18:52:51.862Z,100174.44
2023-07-19T18:55:18.133Z,100163.13
2023-07-19T18:57:44.399Z,100180.81
2023-07-19T19:00:10.802Z,100165.75
2023-07-19T19:02:37.127Z,100165.56
2023-07-19T19:05:03.565Z,100193.16
2023-07-19T19:07:29.820Z,100214.56
2023-07-19T19:09:56.117Z,100206.63
2023-07-19T19:12:22.394Z,100201.69
2023-07-19T19:14:48.644Z,100187.72
2023-07-19T19:17:14.934Z,100180.88
2023-07-19T19:19:41.202Z,100209.31
2023-07-19T19:22:07.459Z,100341.13
2023-07-19T19:24:33.706Z,100492.53
2023-07-19T19:26:59.956Z,100479.09
2023-07-19T19:29:26.227Z,100419.03
2023-07-19T19:31:52.476Z,100350.56
2023-07-19T19:34:18.741Z,100300.41
2023-07-19T19:36:44.974Z,100273.13
2023-07-19T19:39:27.209Z,100248.81
2023-07-19T19:41:55.705Z,100239.81
2023-07-19T19:44:21.995Z,100241.41
2023-07-19T19:46:48.297Z,100231.13
2023-07-19T19:49:14.580Z,100235.31
2023-07-19T19:51:40.926Z,100230.88
2023-07-19T19:54:07.191Z,100220.31
2023-07-19T19:56:33.474Z,100229.50
2023-07-19T19:58:59.782Z,100221.34
2023-07-19T20:01:32.782Z,100218.56
2023-07-19T20:04:04.208Z,100236.50
2023-07-19T20:06:30.918Z,100259.28
2023-07-19T20:09:02.165Z,100262.22
2023-07-19T20:11:29.338Z,100296.19
2023-07-19T20:13:55.629Z,100315.22
2023-07-19T20:16:22.079Z,100310.44
2023-07-19T20:18:48.395Z,100305.19
2023-07-19T20:21:14.705Z,100296.78
2023-07-19T20:23:40.961Z,100284.94
2023-07-19T20:26:14.141Z,100287.88
2023-07-19T20:28:41.393Z,100275.47
2023-07-19T20:31:07.693Z,100260.25
2023-07-19T20:33:34.393Z,100268.28
2023-07-19T20:43:28.487Z,100263.84
2023-07-19T20:45:54.802Z,100268.44
2023-07-19T20:48:21.159Z,100286.13
2023-07-19T20:50:47.441Z,100281.72
2023-07-19T20:53:13.693Z,100281.47
2023-07-19T20:55:39.965Z,100285.50
2023-07-19T20:58:06.242Z,100281.78
2023-07-19T21:00:32.489Z,100264.53
2023-07-19T21:02:58.798Z,100260.09
2023-07-19T21:05:25.135Z,100258.53
2023-07-19T21:07:51.413Z,100270.94
2023-07-19T21:10:17.672Z,100281.47
2023-07-19T21:12:43.927Z,100264.09
2023-07-19T21:15:10.776Z,100262.81
2023-07-19T21:17:37.232Z,100258.91
2023-07-19T21:20:03.589Z,100266.03
2023-07-19T21:22:29.872Z,100261.56
2023-07-19T21:27:25.317Z,100257.84
2023-07-19T21:29:51.600Z,100253.22
2023-07-19T21:32:18.228Z,100283.06
2023-07-19T21:34:45.324Z,100278.31
2023-07-19T21:37:11.603Z,100279.09
2023-07-19T21:39:37.861Z,100272.72
2023-07-19T21:42:04.159Z,100286.06
2023-07-19T21:44:30.408Z,100287.34
2023-07-19T21:46:56.661Z,100287.06
2023-07-19T21:49:22.922Z,100286.56
2023-07-19T21:51:49.173Z,100285.00
2023-07-19T21:54:15.452Z,100293.19
2023-07-19T21:56:41.705Z,100280.81
2023-07-19T21:59:07.980Z,100287.13
2023-07-19T22:01:34.279Z,100281.38
2023-07-19T22:04:00.657Z,100279.56
2023-07-19T22:06:26.968Z,100267.41
2023-07-19T22:08:53.238Z,100268.78
2023-07-19T22:11:19.552Z,100268.06
2023-07-19T22:13:45.847Z,100268.38
2023-07-19T22:16:12.101Z,100281.56
2023-07-19T22:18:38.361Z,100293.41
2023-07-19T22:21:19.688Z,100327.31
2023-07-19T22:23:48.147Z,100325.47
2023-07-19T22:26:14.432Z,100324.16
2023-07-19T22:28:40.708Z,100311.78
2023-07-19T22:31:06.995Z,100278.38
2023-07-19T22:33:33.264Z,100283.38
2023-07-19T22:35:59.674Z,100273.44
2023-07-19T22:38:25.939Z,100268.66
2023-07-19T22:40:52.224Z,100251.88
2023-07-19T22:43:18.487Z,100264.25
2023-07-19T22:45:44.736Z,100246.91
2023-07-19T22:48:11.075Z,100251.38
2023-07-19T22:50:37.376Z,100240.09
2023-07-19T22:53:03.638Z,100256.09
2023-07-19T22:55:29.911Z,100258.63
2023-07-19T22:57:56.182Z,100252.06
2023-07-19T23:00:22.632Z,100250.81
2023-07-19T23:02:48.895Z,100241.88
2023-07-19T23:05:15.337Z,100225.06
2023-07-19T23:07:41.606Z,100207.53
2023-07-19T23:10:08.079Z,100221.50
2023-07-19T23:12:34.352Z,100235.44
2023-07-19T23:15:00.612Z,100249.41
2023-07-19T23:17:26.953Z,100254.03
2023-07-19T23:19:53.268Z,100302.28
2023-07-19T23:22:19.532Z,100381.19
2023-07-19T23:24:45.910Z,100528.66
2023-07-19T23:27:12.171Z,100518.09
2023-07-19T23:29:38.468Z,100443.31
2023-07-19T23:32:04.944Z,100401.50
2023-07-19T23:34:31.185Z,100415.97
2023-07-19T23:36:57.549Z,100487.56
2023-07-19T23:39:24.097Z,100574.47
2023-07-19T23:41:50.359Z,100620.03
2023-07-19T23:44:16.637Z,100635.59
2023-07-19T23:46:42.934Z,100645.31
2023-07-19T23:49:09.454Z,100635.66
2023-07-19T23:51:35.825Z,100620.19
2023-07-19T23:54:02.094Z,100608.09
2023-07-19T23:56:28.356Z,100591.84
2023-07-19T23:58:54.616Z,100572.16
